»·PEaware :: DAL621 KABQ-KSFO

DAL621 :: KABQ-KSFO

FLIGHT INFORMATION

Flight Status: Arrived
Operator:
Delta Air Lines
More flights by this operator :: More flights under this callsign
Pilot: Anonymous 21174 (21174)
Aircraft: BOEING 767-300
(B763)
More flights by this aircraft type
Origin: KABQ Albuquerque Intl Sunport
United States
Destination: KSFO San Francisco Intl
United States
More flights between these airports :: More routes between these airports
Route: +RDRNR3 GUP J72 BLD J92 LIDAT RUSME DYAMD5
File this flight plan on PilotEdge
Remarks: RMK / SIMBRIEF
Altitude:
(Current/Filed)
38,000ft
Speed:
(Current/Filed)
455kts
Departed: 30-Oct-20 03:51 PM
Arrived: 30-Oct-20 05:53 PM
Distance/Time
Traveled:
777nm/2:02
Distance/Time
To Go:
Arrived

Flight Plot

Page will automatically refresh every two minutes.

Flight plan parsing failed; only flown route is shown


Map Options




Map Legend


Flown Route
Filed Route
Departure Airport
Arrival Airport
Navaid (VOR, NDB)
Fix

Horizontal Profiles

Position Reports

Time Latitude Longitude Heading Altitude Ground
Speed
30-Oct-20 15:26 35.047961 -106.615683 181 5316ft 0kts
30-Oct-20 15:27 35.047961 -106.615683 181 5316ft 0kts
30-Oct-20 15:28 35.047961 -106.615683 181 5316ft 0kts
30-Oct-20 15:29 35.047961 -106.615683 181 5316ft 0kts
30-Oct-20 15:30 35.047961 -106.615683 181 5316ft 0kts
30-Oct-20 15:31 35.047960 -106.615683 181 5316ft 0kts
30-Oct-20 15:32 35.047960 -106.615683 181 5316ft 0kts
30-Oct-20 15:33 35.047960 -106.615683 181 5316ft 0kts
30-Oct-20 15:34 35.047960 -106.615683 181 5316ft 0kts
30-Oct-20 15:35 35.047960 -106.615683 181 5316ft 0kts
30-Oct-20 15:36 35.047960 -106.615683 181 5316ft 0kts
30-Oct-20 15:38 35.047961 -106.615683 181 5316ft 0kts
30-Oct-20 15:39 35.047961 -106.615683 181 5316ft 0kts
30-Oct-20 15:40 35.048184 -106.615622 208 5316ft 2kts
30-Oct-20 15:41 35.048474 -106.615020 272 5316ft 2kts
30-Oct-20 15:42 35.048462 -106.614268 270 5318ft 2kts
30-Oct-20 15:43 35.048659 -106.613751 181 5318ft 1kts
30-Oct-20 15:44 35.048690 -106.613750 179 5318ft 0kts
30-Oct-20 15:45 35.048690 -106.613750 179 5318ft 0kts
30-Oct-20 15:46 35.048339 -106.613586 150 5319ft 8kts
30-Oct-20 15:47 35.045616 -106.613788 255 5320ft 12kts
30-Oct-20 15:48 35.045662 -106.618404 274 5316ft 16kts
30-Oct-20 15:49 35.045263 -106.621358 185 5305ft 0kts
30-Oct-20 15:50 35.044385 -106.620993 100 5307ft 5kts
30-Oct-20 15:51 35.044354 -106.591166 87 5636ft 174kts
30-Oct-20 15:52 35.051748 -106.528476 42 6895ft 236kts
30-Oct-20 15:52 35.104882 -106.538516 302 8999ft 272kts
30-Oct-20 15:54 35.090771 -106.653653 264 11788ft 336kts
30-Oct-20 15:54 35.091500 -106.750649 271 14669ft 351kts
30-Oct-20 15:56 35.116633 -106.891338 281 18237ft 373kts
30-Oct-20 15:57 35.140598 -107.017436 281 21192ft 386kts
30-Oct-20 15:58 35.165105 -107.147352 281 23878ft 400kts
30-Oct-20 15:58 35.186348 -107.260628 281 25955ft 412kts
30-Oct-20 15:59 35.212326 -107.400042 282 28259ft 425kts
30-Oct-20 16:00 35.238901 -107.543634 282 30382ft 438kts
30-Oct-20 16:01 35.265861 -107.690333 281 32754ft 437kts
30-Oct-20 16:02 35.292296 -107.835249 281 34884ft 430kts
30-Oct-20 16:03 35.311803 -107.979039 273 36511ft 425kts
30-Oct-20 16:04 35.328617 -108.122959 285 37722ft 425kts
30-Oct-20 16:05 35.358552 -108.262951 282 38199ft 423kts
30-Oct-20 16:06 35.386087 -108.403673 282 38199ft 423kts
30-Oct-20 16:07 35.413293 -108.544420 282 38198ft 423kts
30-Oct-20 16:08 35.440468 -108.686014 281 38203ft 423kts
30-Oct-20 16:09 35.467442 -108.827509 281 38202ft 424kts
30-Oct-20 16:10 35.480838 -108.970320 272 38201ft 423kts
30-Oct-20 16:11 35.488206 -109.115648 272 38201ft 423kts
30-Oct-20 16:12 35.495264 -109.260623 272 38203ft 423kts
30-Oct-20 16:13 35.502154 -109.405821 271 38203ft 423kts
30-Oct-20 16:14 35.508864 -109.551028 271 38205ft 423kts
30-Oct-20 16:15 35.515399 -109.696193 271 38211ft 423kts
30-Oct-20 16:16 35.521758 -109.841265 271 38211ft 423kts
30-Oct-20 16:17 35.527943 -109.986502 271 38192ft 423kts
30-Oct-20 16:18 35.533971 -110.132127 271 38136ft 423kts
30-Oct-20 16:19 35.539803 -110.277272 271 38118ft 423kts
30-Oct-20 16:20 35.545463 -110.422565 271 38116ft 424kts
30-Oct-20 16:21 35.550986 -110.568717 271 38116ft 424kts
30-Oct-20 16:22 35.556296 -110.714039 270 38120ft 424kts
30-Oct-20 16:23 35.561451 -110.859789 270 38120ft 424kts
30-Oct-20 16:24 35.566420 -111.005333 270 38139ft 425kts
30-Oct-20 16:25 35.571213 -111.150839 270 38164ft 424kts
30-Oct-20 16:26 35.575863 -111.297366 270 38163ft 424kts
30-Oct-20 16:27 35.580311 -111.443141 271 38162ft 426kts
30-Oct-20 16:28 35.583878 -111.589283 270 38162ft 425kts
30-Oct-20 16:29 35.586798 -111.735972 270 38165ft 426kts
30-Oct-20 16:30 35.589586 -111.882859 270 38166ft 426kts
30-Oct-20 16:31 35.594212 -112.029071 271 38171ft 426kts
30-Oct-20 16:32 35.598685 -112.175710 271 38172ft 426kts
30-Oct-20 16:33 35.602967 -112.321894 271 38172ft 427kts
30-Oct-20 16:34 35.606567 -112.468809 270 38172ft 427kts
30-Oct-20 16:35 35.609594 -112.615064 270 38171ft 426kts
30-Oct-20 16:36 35.612460 -112.762030 270 38174ft 427kts
30-Oct-20 16:37 35.615138 -112.908521 270 38128ft 429kts
30-Oct-20 16:38 35.617651 -113.055821 270 38049ft 429kts
30-Oct-20 16:39 35.619990 -113.203296 270 38044ft 429kts
30-Oct-20 16:40 35.622152 -113.351207 270 38043ft 430kts
30-Oct-20 16:41 35.624136 -113.499200 270 38044ft 432kts
30-Oct-20 16:42 35.653345 -113.643438 288 38042ft 435kts
30-Oct-20 16:43 35.693621 -113.784671 288 38045ft 435kts
30-Oct-20 16:44 35.733956 -113.926278 288 38046ft 436kts
30-Oct-20 16:45 35.774218 -114.068343 288 38024ft 437kts
30-Oct-20 16:46 35.814308 -114.210519 288 37958ft 436kts
30-Oct-20 16:47 35.854128 -114.352473 288 37935ft 435kts
30-Oct-20 16:48 35.893777 -114.494569 288 37940ft 435kts
30-Oct-20 16:49 35.933202 -114.636604 288 37945ft 436kts
30-Oct-20 16:50 35.972304 -114.778187 288 37950ft 435kts
30-Oct-20 16:51 36.019174 -114.916431 298 37956ft 437kts
30-Oct-20 16:52 36.077385 -115.049744 298 37948ft 437kts
30-Oct-20 16:53 36.135436 -115.182857 298 37939ft 437kts
30-Oct-20 16:54 36.193408 -115.316302 299 37936ft 438kts
30-Oct-20 16:55 36.251382 -115.450298 299 37936ft 438kts
30-Oct-20 16:56 36.309157 -115.584371 299 37935ft 439kts
30-Oct-20 16:57 36.367019 -115.719210 298 37935ft 439kts
30-Oct-20 16:58 36.424612 -115.853959 298 37936ft 439kts
30-Oct-20 16:59 36.481991 -115.988766 298 37945ft 438kts
30-Oct-20 17:00 36.539244 -116.123837 299 37975ft 438kts
30-Oct-20 17:01 36.596323 -116.259051 298 37987ft 437kts
30-Oct-20 17:02 36.653016 -116.393916 298 37990ft 436kts
30-Oct-20 17:03 36.709165 -116.528045 298 37989ft 434kts
30-Oct-20 17:04 36.765383 -116.662893 298 37990ft 434kts
30-Oct-20 17:05 36.839313 -116.779111 325 37999ft 431kts
30-Oct-20 17:06 36.938936 -116.863204 326 37990ft 431kts
30-Oct-20 17:07 37.039006 -116.947220 326 38002ft 431kts
30-Oct-20 17:08 37.139142 -117.031512 325 38025ft 430kts
30-Oct-20 17:09 37.238627 -117.115525 325 38091ft 430kts
30-Oct-20 17:10 37.338418 -117.200069 325 38117ft 429kts
30-Oct-20 17:11 37.428484 -117.297518 302 38124ft 429kts
30-Oct-20 17:12 37.472471 -117.438499 289 38117ft 430kts
30-Oct-20 17:13 37.499329 -117.585963 277 38118ft 431kts
30-Oct-20 17:14 37.512040 -117.736843 277 38119ft 431kts
30-Oct-20 17:15 37.524295 -117.888055 277 38119ft 431kts
30-Oct-20 17:16 37.536321 -118.039036 276 38118ft 431kts
30-Oct-20 17:17 37.548158 -118.190156 276 38118ft 431kts
30-Oct-20 17:18 37.559825 -118.341607 276 38117ft 431kts
30-Oct-20 17:19 37.571272 -118.492705 276 38117ft 430kts
30-Oct-20 17:20 37.582523 -118.643826 276 38116ft 431kts
30-Oct-20 17:21 37.593593 -118.795197 276 38119ft 431kts
30-Oct-20 17:22 37.604526 -118.947377 276 38089ft 431kts
30-Oct-20 17:23 37.615229 -119.099086 276 38066ft 432kts
30-Oct-20 17:24 37.625692 -119.250302 276 38098ft 427kts
30-Oct-20 17:25 37.635724 -119.397870 276 38172ft 422kts
30-Oct-20 17:26 37.645628 -119.546383 276 37929ft 423kts
30-Oct-20 17:27 37.655016 -119.689884 275 36130ft 407kts
30-Oct-20 17:28 37.664246 -119.833583 276 34357ft 411kts
30-Oct-20 17:29 37.673392 -119.978793 276 32539ft 416kts
30-Oct-20 17:31 37.682476 -120.125950 276 30655ft 421kts
30-Oct-20 17:32 37.691323 -120.272391 276 28714ft 409kts
30-Oct-20 17:33 37.696880 -120.414278 266 26906ft 403kts
30-Oct-20 17:34 37.681659 -120.554327 264 24838ft 393kts
30-Oct-20 17:35 37.665730 -120.690329 264 22861ft 385kts
30-Oct-20 17:36 37.649964 -120.822629 264 22067ft 383kts
30-Oct-20 17:37 37.633789 -120.956374 263 19521ft 382kts
30-Oct-20 17:38 37.616454 -121.086779 262 17765ft 362kts
30-Oct-20 17:39 37.599825 -121.210715 262 14745ft 353kts
30-Oct-20 17:40 37.584816 -121.331864 263 13177ft 347kts
30-Oct-20 17:41 37.571066 -121.451079 263 11515ft 334kts
30-Oct-20 17:42 37.557668 -121.566134 263 10260ft 318kts
30-Oct-20 17:43 37.540281 -121.668607 254 9529ft 299kts
30-Oct-20 17:44 37.516721 -121.767453 254 8058ft 279kts
30-Oct-20 17:45 37.494679 -121.859386 254 7289ft 268kts
30-Oct-20 17:46 37.495328 -121.951835 274 6180ft 260kts
30-Oct-20 17:46 37.499658 -122.028444 274 4914ft 269kts
30-Oct-20 17:48 37.518835 -122.131930 297 3600ft 240kts
30-Oct-20 17:48 37.545303 -122.194964 297 2838ft 241kts
30-Oct-20 17:50 37.578158 -122.273032 298 1556ft 169kts
30-Oct-20 17:50 37.594885 -122.312812 298 830ft 134kts
30-Oct-20 17:52 37.613386 -122.356771 298 81ft 119kts
30-Oct-20 17:52 37.621436 -122.376026 297 27ft 10kts
30-Oct-20 17:54 37.618329 -122.379916 145 34ft 9kts
30-Oct-20 17:54 37.617810 -122.379588 164 34ft 9kts
30-Oct-20 17:56 37.616129 -122.381627 297 34ft 5kts
30-Oct-20 17:56 37.616692 -122.381703 16 34ft 3kts
30-Oct-20 17:57 37.616721 -122.381692 16 34ft 0kts
30-Oct-20 17:58 37.616721 -122.381692 16 34ft 0kts
30-Oct-20 17:59 37.616721 -122.381692 16 34ft 0kts
30-Oct-20 18:00 37.616721 -122.381692 16 34ft 0kts
30-Oct-20 18:01 37.616721 -122.381692 16 35ft 0kts
30-Oct-20 18:02 37.616721 -122.381692 16 35ft 0kts
30-Oct-20 18:03 37.616721 -122.381692 16 35ft 0kts

Navigation Log

Ident Type
Flight plan parsing failed, navigation log unavailable